Brookfield Center, Connecticut
Current Conditions -  °F | °C
As of 5:33 AM on Tuesday 27 Jan 2015 (Local Time) from KDXR Reporting Station
Light Snow Light Snow  
Wind Chill:   Ceiling: 3500
Heat Index: 19°   Visibility: 2.5mi
Dew Point: 11°   Wind: 16mph
Humidity: 71%   Direction: 350°N
Pressure: 29.64"   Gusts: 23mph
Location:  41.4668°N, 73.3928°W
Report Text: KDXR 271033Z AUTO 35014G20KT 2 1/2SM -SN OVC035 M07/M12 A2964 RMK AO2 P0000 T10721117 $
Loading
Personal Weather Stations






























Interactive Weather Map New forecast layout! Learn more

10-Day Weather Forecast

Advertisements
Track Severe Weather on mobile